createdAt,value
2022-12-15T00:00:35.761Z,-2.60
2022-12-15T00:03:33.870Z,-2.70
2022-12-15T00:06:22.762Z,-2.70
2022-12-15T00:09:14.221Z,-2.80
2022-12-15T00:12:01.370Z,-2.80
2022-12-15T00:14:48.797Z,-2.90
2022-12-15T00:20:43.973Z,-3.20
2022-12-15T00:23:31.524Z,-3.20
2022-12-15T00:26:27.977Z,-3.10
2022-12-15T00:29:17.025Z,-2.80
2022-12-15T00:32:03.344Z,-2.80
2022-12-15T00:34:48.979Z,-2.70
2022-12-15T00:37:35.937Z,-2.60
2022-12-15T00:40:06.071Z,-2.80
2022-12-15T00:42:39.832Z,-2.50
2022-12-15T00:45:10.302Z,-2.50
2022-12-15T00:47:41.499Z,-2.40
2022-12-15T00:50:30.454Z,-2.40
2022-12-15T00:53:16.154Z,-2.40
2022-12-15T00:56:01.554Z,-2.40
2022-12-15T00:58:48.126Z,-2.50
2022-12-15T01:01:34.033Z,-2.60
2022-12-15T01:04:19.629Z,-2.80
2022-12-15T01:07:05.580Z,-2.80
2022-12-15T01:09:50.923Z,-2.90
2022-12-15T01:12:37.201Z,-2.90
2022-12-15T01:15:27.447Z,-2.90
2022-12-15T01:18:12.632Z,-3.00
2022-12-15T01:20:39.656Z,-2.90
2022-12-15T01:23:06.493Z,-2.80
2022-12-15T01:25:33.331Z,-2.80
2022-12-15T01:28:00.506Z,-2.80
2022-12-15T01:30:28.193Z,-2.60
2022-12-15T01:32:55.071Z,-2.50
2022-12-15T01:35:22.518Z,-2.50
2022-12-15T01:37:49.889Z,-2.50
2022-12-15T01:40:37.807Z,-2.60
2022-12-15T01:43:09.547Z,-2.50
2022-12-15T01:46:01.228Z,-2.50
2022-12-15T01:48:32.505Z,-2.40
2022-12-15T01:51:11.066Z,-2.50
2022-12-15T01:54:03.939Z,-2.50
2022-12-15T01:56:37.708Z,-2.50
2022-12-15T01:59:08.874Z,-2.40
2022-12-15T02:01:36.872Z,-2.10
2022-12-15T02:04:04.212Z,-2.30
2022-12-15T02:06:35.250Z,-2.20
2022-12-15T02:09:07.383Z,-2.30
2022-12-15T02:12:09.621Z,-2.40
2022-12-15T02:15:20.532Z,-2.10
2022-12-15T02:17:50.034Z,-2.40
2022-12-15T02:20:58.665Z,-2.10
2022-12-15T02:23:50.470Z,-2.00
2022-12-15T02:26:45.915Z,-2.10
2022-12-15T02:29:48.434Z,-2.10
2022-12-15T02:32:26.481Z,-1.90
2022-12-15T02:35:03.421Z,-1.60
2022-12-15T02:37:36.594Z,-1.40
2022-12-15T02:40:09.494Z,-1.30
2022-12-15T02:42:43.089Z,-1.50
2022-12-15T02:45:17.343Z,-1.40
2022-12-15T02:47:55.176Z,-1.30
2022-12-15T02:50:48.954Z,-1.10
2022-12-15T02:53:31.647Z,-1.30
2022-12-15T02:56:19.693Z,-1.50
2022-12-15T02:59:06.467Z,-1.80
2022-12-15T03:01:45.475Z,-1.80
2022-12-15T03:04:15.010Z,-1.70
2022-12-15T03:06:42.832Z,-1.60
2022-12-15T03:09:13.393Z,-1.60
2022-12-15T03:11:40.343Z,-1.60
2022-12-15T03:14:07.187Z,-1.60
2022-12-15T03:16:34.495Z,-1.60
2022-12-15T03:19:02.693Z,-1.70
2022-12-15T03:21:30.003Z,-1.60
2022-12-15T03:23:59.799Z,-1.50
2022-12-15T03:26:29.696Z,-1.30
2022-12-15T03:28:57.150Z,-1.20
2022-12-15T03:31:27.180Z,-1.10
2022-12-15T03:33:54.827Z,-1.00
2022-12-15T03:36:23.455Z,-0.80
2022-12-15T03:38:51.699Z,-1.00
2022-12-15T03:41:19.733Z,-1.20
2022-12-15T03:43:49.863Z,-1.30
2022-12-15T03:46:19.820Z,-1.20
2022-12-15T03:48:48.433Z,-1.30
2022-12-15T03:51:18.509Z,-1.30
2022-12-15T03:53:48.622Z,-1.40
2022-12-15T03:56:16.872Z,-1.30
2022-12-15T03:58:44.855Z,-1.30
2022-12-15T04:01:20.949Z,-1.10
2022-12-15T04:04:00.602Z,-1.30
2022-12-15T04:06:29.794Z,-1.30
2022-12-15T04:08:56.694Z,-1.00
2022-12-15T04:11:23.591Z,-0.90
2022-12-15T04:13:51.336Z,-0.80
2022-12-15T04:16:20.309Z,-0.80
2022-12-15T04:19:08.709Z,-1.10
2022-12-15T04:21:36.412Z,-1.30
2022-12-15T04:24:23.088Z,-1.10
2022-12-15T04:27:08.990Z,-0.90
2022-12-15T04:29:55.288Z,-0.80
2022-12-15T04:32:41.284Z,-0.90
2022-12-15T04:35:29.298Z,-0.80
2022-12-15T04:38:15.393Z,-0.90
2022-12-15T04:41:01.232Z,-0.70
2022-12-15T04:43:46.944Z,-0.70
2022-12-15T04:46:32.344Z,-0.90
2022-12-15T04:49:18.391Z,-0.90
2022-12-15T04:52:05.999Z,-1.00
2022-12-15T04:54:52.054Z,-1.10
2022-12-15T04:57:37.225Z,-1.10
2022-12-15T05:00:23.715Z,-1.10
2022-12-15T05:03:13.601Z,-1.00
2022-12-15T05:06:04.807Z,-0.80
2022-12-15T05:08:50.476Z,-0.70
2022-12-15T05:11:38.747Z,-0.60
2022-12-15T05:14:24.039Z,-0.40
2022-12-15T05:17:10.379Z,-0.40
2022-12-15T05:19:55.782Z,-0.30
2022-12-15T05:22:41.838Z,-0.10
2022-12-15T05:25:28.874Z,-0.20
2022-12-15T05:28:15.171Z,-0.60
2022-12-15T05:31:00.431Z,-0.50
2022-12-15T05:33:28.805Z,-0.30
2022-12-15T05:36:04.069Z,-0.20
2022-12-15T05:38:34.735Z,-0.10
2022-12-15T05:41:01.615Z,-0.30
2022-12-15T05:43:29.222Z,-0.70
2022-12-15T05:45:56.716Z,-0.90
2022-12-15T05:48:24.650Z,-1.00
2022-12-15T05:50:52.282Z,-1.00
2022-12-15T05:53:20.504Z,-1.10
2022-12-15T05:55:48.879Z,-0.80
2022-12-15T05:58:15.708Z,-0.60
2022-12-15T06:00:43.684Z,-0.50
2022-12-15T06:03:11.170Z,-0.40
2022-12-15T06:05:39.371Z,-0.40
2022-12-15T06:08:06.179Z,-0.50
2022-12-15T06:10:35.522Z,-0.70
2022-12-15T06:13:04.841Z,-0.60
2022-12-15T06:15:31.615Z,-0.60
2022-12-15T06:17:58.399Z,-0.70
2022-12-15T06:20:25.877Z,-0.70
2022-12-15T06:22:52.684Z,-0.50
2022-12-15T06:25:19.761Z,-0.30
2022-12-15T06:27:47.073Z,-0.40
2022-12-15T06:30:14.231Z,-0.50
2022-12-15T06:32:41.649Z,-0.50
2022-12-15T06:35:11.464Z,-0.90
2022-12-15T06:37:43.384Z,-0.80
2022-12-15T06:40:11.236Z,-0.70
2022-12-15T06:42:38.195Z,-0.70
2022-12-15T06:45:08.851Z,-0.80
2022-12-15T06:47:36.024Z,-1.00
2022-12-15T06:50:03.473Z,-0.80
2022-12-15T06:52:30.797Z,-0.90
2022-12-15T06:54:57.656Z,-1.00
2022-12-15T06:57:25.129Z,-0.90
2022-12-15T06:59:51.887Z,-0.90
2022-12-15T07:02:23.689Z,-0.90
2022-12-15T07:04:57.704Z,-0.80
2022-12-15T07:07:29.103Z,-0.90
2022-12-15T07:09:55.850Z,-0.90
2022-12-15T07:12:34.722Z,-0.90
2022-12-15T07:15:02.826Z,-0.80
2022-12-15T07:17:37.624Z,-0.90
2022-12-15T07:20:05.730Z,-1.10
2022-12-15T07:22:34.762Z,-1.00
2022-12-15T07:25:04.089Z,-1.00
2022-12-15T07:27:31.290Z,-1.00
2022-12-15T07:29:58.068Z,-0.80
2022-12-15T07:32:25.397Z,-0.80
2022-12-15T07:34:53.702Z,-0.80
2022-12-15T07:37:21.561Z,-0.70
2022-12-15T07:40:00.828Z,-0.60
2022-12-15T07:42:31.212Z,-0.50
2022-12-15T07:45:00.564Z,-0.30
2022-12-15T07:47:29.010Z,-0.50
2022-12-15T07:50:04.234Z,-0.50
2022-12-15T07:52:32.165Z,-0.30
2022-12-15T07:54:59.250Z,-0.30
2022-12-15T07:57:28.354Z,-0.40
2022-12-15T07:59:57.866Z,-0.40
2022-12-15T08:02:25.633Z,-0.50
2022-12-15T08:04:54.231Z,-0.50
2022-12-15T08:07:22.175Z,-0.50
2022-12-15T08:09:49.142Z,-0.30
2022-12-15T08:12:17.213Z,-0.30
2022-12-15T08:14:43.969Z,0.10
2022-12-15T08:17:21.357Z,0.10
2022-12-15T08:19:55.686Z,0.10
2022-12-15T08:22:27.665Z,0.20
2022-12-15T08:24:54.513Z,0.50
2022-12-15T08:27:22.363Z,0.10
2022-12-15T08:29:51.174Z,0.00
2022-12-15T08:32:20.305Z,-0.10
2022-12-15T08:34:58.333Z,0.20
2022-12-15T08:37:36.231Z,0.10
2022-12-15T08:40:04.152Z,0.10
2022-12-15T08:42:38.081Z,-0.20
2022-12-15T08:45:06.125Z,-0.20
2022-12-15T08:47:33.638Z,-0.20
2022-12-15T08:50:00.625Z,-0.30
2022-12-15T08:52:29.476Z,-0.30
2022-12-15T08:54:57.704Z,-0.20
2022-12-15T08:57:25.508Z,-0.20
2022-12-15T09:00:01.420Z,0.20
2022-12-15T09:02:28.996Z,0.40
2022-12-15T09:04:55.832Z,0.30
2022-12-15T09:07:23.131Z,0.40
2022-12-15T09:09:51.083Z,0.50
2022-12-15T09:12:18.020Z,0.70
2022-12-15T09:14:45.220Z,0.90
2022-12-15T09:17:12.991Z,0.90
2022-12-15T09:19:42.152Z,0.90
2022-12-15T09:22:10.595Z,0.80
2022-12-15T09:24:37.609Z,0.80
2022-12-15T09:27:04.470Z,1.10
2022-12-15T09:29:32.843Z,1.20
2022-12-15T09:32:00.051Z,1.40
2022-12-15T09:34:27.363Z,1.50
2022-12-15T09:37:00.209Z,2.00
2022-12-15T09:39:28.421Z,2.50
2022-12-15T09:42:01.306Z,2.50
2022-12-15T09:44:32.149Z,2.40
2022-12-15T09:47:21.342Z,2.30
2022-12-15T09:50:03.109Z,1.70
2022-12-15T09:52:39.070Z,1.00
2022-12-15T09:55:20.006Z,0.50
2022-12-15T09:58:31.446Z,0.00
2022-12-15T10:01:28.123Z,-0.30
2022-12-15T10:04:20.924Z,-0.50
2022-12-15T10:07:01.455Z,-0.50
2022-12-15T10:09:30.804Z,-0.10
2022-12-15T10:12:30.197Z,-0.20
2022-12-15T10:15:01.075Z,0.10
2022-12-15T10:17:35.605Z,0.20
2022-12-15T10:20:32.391Z,0.30
2022-12-15T10:23:11.095Z,0.60
2022-12-15T10:25:38.313Z,0.60
2022-12-15T10:28:24.913Z,0.20
2022-12-15T10:30:58.738Z,0.40
2022-12-15T10:33:36.128Z,0.70
2022-12-15T10:36:08.018Z,0.50
2022-12-15T10:38:41.243Z,0.70
2022-12-15T10:41:08.810Z,0.50
2022-12-15T10:43:42.007Z,0.50
2022-12-15T10:46:22.149Z,0.30
2022-12-15T10:48:58.501Z,0.00
2022-12-15T10:51:39.787Z,0.10
2022-12-15T10:54:15.547Z,0.30
2022-12-15T10:56:56.903Z,0.40
2022-12-15T10:59:34.699Z,0.40
2022-12-15T11:02:34.254Z,0.40
2022-12-15T11:05:16.610Z,0.50
2022-12-15T11:07:49.356Z,0.60
2022-12-15T11:10:24.301Z,0.40
2022-12-15T11:13:12.809Z,0.30
2022-12-15T11:16:11.300Z,0.30
2022-12-15T11:18:39.305Z,0.50
2022-12-15T11:21:18.666Z,0.20
2022-12-15T11:24:09.206Z,0.40
2022-12-15T11:26:48.867Z,0.50
2022-12-15T11:29:39.546Z,0.60
2022-12-15T11:32:10.420Z,0.90
2022-12-15T11:34:42.538Z,0.80
2022-12-15T11:37:16.702Z,0.60
2022-12-15T11:40:02.007Z,0.60
2022-12-15T11:42:45.266Z,0.60
2022-12-15T11:45:24.356Z,0.60
2022-12-15T11:48:02.539Z,0.60
2022-12-15T11:50:59.825Z,0.70
2022-12-15T11:53:55.385Z,0.70
2022-12-15T11:56:31.316Z,1.00
2022-12-15T11:59:12.980Z,1.00
2022-12-15T12:02:00.707Z,0.90
2022-12-15T12:05:08.447Z,0.90
2022-12-15T12:07:44.939Z,0.80
2022-12-15T12:10:35.449Z,0.80
2022-12-15T12:13:23.536Z,0.60
2022-12-15T12:16:12.025Z,0.50
2022-12-15T12:19:14.937Z,0.40
2022-12-15T12:21:51.086Z,0.80
2022-12-15T12:24:39.138Z,1.10
2022-12-15T12:27:24.418Z,1.20
2022-12-15T12:30:09.445Z,1.20
2022-12-15T12:32:42.984Z,1.20
2022-12-15T12:35:31.053Z,0.60
2022-12-15T12:38:04.007Z,0.80
2022-12-15T12:40:56.195Z,0.70
2022-12-15T12:43:36.387Z,0.40
2022-12-15T12:46:14.206Z,0.60
2022-12-15T12:49:00.329Z,0.90
2022-12-15T12:51:28.917Z,1.00
2022-12-15T12:54:04.353Z,1.10
2022-12-15T12:56:42.753Z,1.20
2022-12-15T12:59:34.625Z,1.30
2022-12-15T13:02:20.994Z,1.40
2022-12-15T13:04:52.006Z,1.60
2022-12-15T13:07:37.340Z,1.70
2022-12-15T13:10:16.822Z,1.60
2022-12-15T13:12:54.727Z,1.60
2022-12-15T13:15:27.811Z,1.90
2022-12-15T13:18:15.451Z,2.00
2022-12-15T13:20:45.331Z,2.10
2022-12-15T13:23:22.272Z,1.70
2022-12-15T13:26:10.873Z,1.80
2022-12-15T13:28:47.850Z,1.70
2022-12-15T13:31:21.006Z,1.60
2022-12-15T13:33:50.795Z,1.60
2022-12-15T13:36:37.598Z,1.50
2022-12-15T13:39:19.717Z,1.50
2022-12-15T13:42:32.740Z,1.50
2022-12-15T13:44:52.104Z,1.60
2022-12-15T13:47:29.057Z,1.60
2022-12-15T13:50:14.785Z,1.60
2022-12-15T13:53:18.450Z,1.40
2022-12-15T13:58:43.303Z,1.50
2022-12-15T14:01:24.012Z,1.60
2022-12-15T14:04:15.864Z,1.50
2022-12-15T14:06:50.826Z,1.30
2022-12-15T14:09:22.544Z,1.20
2022-12-15T14:12:01.219Z,1.00
2022-12-15T14:14:35.371Z,0.80
2022-12-15T14:17:08.608Z,0.60
2022-12-15T14:19:46.138Z,0.60
2022-12-15T14:22:30.380Z,0.40
2022-12-15T14:25:13.400Z,0.30
2022-12-15T14:27:40.199Z,0.20
2022-12-15T14:30:24.709Z,0.00
2022-12-15T14:33:14.389Z,-0.20
2022-12-15T14:35:49.517Z,-0.60
2022-12-15T14:38:24.748Z,-0.70
2022-12-15T14:40:54.750Z,-1.00
2022-12-15T14:43:29.580Z,-1.20
2022-12-15T14:46:23.337Z,-1.20
2022-12-15T14:48:57.465Z,-1.30
2022-12-15T14:51:28.554Z,-1.10
2022-12-15T14:53:55.935Z,-1.10
2022-12-15T14:56:33.666Z,-1.30
2022-12-15T14:59:19.150Z,-1.30
2022-12-15T15:02:00.357Z,-1.30
2022-12-15T15:03:09.546Z,1.40
2022-12-15T15:04:33.103Z,-1.60
2022-12-15T15:07:03.331Z,-1.80
2022-12-15T15:09:53.869Z,-1.90
2022-12-15T15:12:24.679Z,-1.90
2022-12-15T15:15:07.202Z,-2.10
2022-12-15T15:17:44.336Z,-2.30
2022-12-15T15:20:21.624Z,-2.20
2022-12-15T15:23:08.387Z,-2.00
2022-12-15T15:26:11.888Z,-2.00
2022-12-15T15:28:47.998Z,-2.00
2022-12-15T15:31:36.812Z,-2.10
2022-12-15T15:34:11.535Z,-2.00
2022-12-15T15:36:39.987Z,-2.20
2022-12-15T15:39:18.616Z,-2.30
2022-12-15T15:41:45.761Z,-2.30
2022-12-15T15:44:15.527Z,-2.30
2022-12-15T15:46:49.198Z,-2.40
2022-12-15T15:49:21.933Z,-2.40
2022-12-15T15:51:49.481Z,-2.40
2022-12-15T15:54:25.027Z,-2.40
2022-12-15T15:56:51.867Z,-2.30
2022-12-15T15:59:24.957Z,-2.20
2022-12-15T16:01:56.116Z,-2.40
2022-12-15T16:04:25.325Z,-2.50
2022-12-15T16:06:53.719Z,-2.50
2022-12-15T16:09:21.064Z,-2.40
2022-12-15T16:11:50.829Z,-2.60
2022-12-15T16:14:18.930Z,-2.70
2022-12-15T16:16:47.083Z,-2.90
2022-12-15T16:19:14.531Z,-2.80
2022-12-15T16:21:42.793Z,-2.80
2022-12-15T16:24:15.780Z,-2.70
2022-12-15T16:26:48.776Z,-2.70
2022-12-15T16:29:17.911Z,-2.80
2022-12-15T16:31:49.228Z,-3.00
2022-12-15T16:34:19.846Z,-3.00
2022-12-15T16:36:47.272Z,-3.00
2022-12-15T16:39:25.427Z,-3.10
2022-12-15T16:41:54.112Z,-3.20
2022-12-15T16:44:21.282Z,-3.20
2022-12-15T16:46:48.528Z,-3.30
2022-12-15T16:49:15.309Z,-3.30
2022-12-15T16:51:53.685Z,-3.20
2022-12-15T16:54:23.945Z,-3.20
2022-12-15T16:56:52.496Z,-3.30
2022-12-15T16:59:33.040Z,-3.40
2022-12-15T17:02:06.659Z,-3.50
2022-12-15T17:04:33.575Z,-3.50
2022-12-15T17:07:01.932Z,-3.40
2022-12-15T17:09:39.028Z,-3.60
2022-12-15T17:12:07.931Z,-3.60
2022-12-15T17:14:38.498Z,-3.60
2022-12-15T17:17:26.534Z,-3.60
2022-12-15T17:22:40.942Z,-3.60
2022-12-15T17:25:45.943Z,-3.40
2022-12-15T17:28:25.837Z,-3.50
2022-12-15T17:30:53.141Z,-3.40
2022-12-15T17:33:27.279Z,-3.40
2022-12-15T17:36:04.104Z,-3.50
2022-12-15T17:38:31.205Z,-3.40
2022-12-15T17:40:59.483Z,-3.30
2022-12-15T17:43:35.475Z,-3.40
2022-12-15T17:46:05.262Z,-3.30
2022-12-15T17:48:32.976Z,-3.40
2022-12-15T17:50:59.898Z,-3.20
2022-12-15T17:53:29.457Z,-3.10
2022-12-15T17:55:56.446Z,-3.30
2022-12-15T17:58:26.164Z,-3.00
2022-12-15T18:00:56.090Z,-2.90
2022-12-15T18:03:23.628Z,-2.80
2022-12-15T18:05:53.177Z,-2.90
2022-12-15T18:11:43.813Z,-2.80
2022-12-15T18:14:20.239Z,-2.80
2022-12-15T18:16:47.600Z,-2.80
2022-12-15T18:19:14.601Z,-2.80
2022-12-15T18:21:42.124Z,-2.70
2022-12-15T18:24:21.564Z,-2.70
2022-12-15T18:26:49.547Z,-2.60
2022-12-15T18:29:18.289Z,-2.40
2022-12-15T18:31:49.389Z,-2.10
2022-12-15T18:34:21.179Z,-2.20
2022-12-15T18:36:48.441Z,-2.40
2022-12-15T18:39:23.918Z,-2.20
2022-12-15T18:41:51.834Z,-2.10
2022-12-15T18:52:36.427Z,-2.60
2022-12-15T18:55:35.015Z,-2.70
2022-12-15T18:58:02.333Z,-3.00
2022-12-15T19:00:30.897Z,-3.20
2022-12-15T19:03:02.469Z,-3.30
2022-12-15T19:05:33.891Z,-3.10
2022-12-15T19:08:28.077Z,-3.10
2022-12-15T19:11:01.101Z,-3.00
2022-12-15T19:13:40.272Z,-3.10
2022-12-15T19:16:36.899Z,-3.20
2022-12-15T19:19:38.189Z,-3.30
2022-12-15T19:22:30.125Z,-3.20
2022-12-15T19:24:59.779Z,-3.20
2022-12-15T19:27:27.358Z,-3.20
2022-12-15T19:29:59.358Z,-3.10
2022-12-15T19:32:37.845Z,-3.10
2022-12-15T19:35:05.205Z,-3.40
2022-12-15T19:37:32.170Z,-3.40
2022-12-15T19:40:22.593Z,-3.30
2022-12-15T19:42:50.332Z,-3.30
2022-12-15T19:45:22.780Z,-3.30
2022-12-15T19:47:50.231Z,-3.30
2022-12-15T19:50:26.431Z,-3.20
2022-12-15T19:53:00.088Z,-3.10
2022-12-15T19:55:33.463Z,-3.10
2022-12-15T19:58:27.331Z,-3.20
2022-12-15T20:00:58.736Z,-3.20
2022-12-15T20:03:26.815Z,-3.20
2022-12-15T20:05:59.569Z,-3.10
2022-12-15T20:08:37.859Z,-3.20
2022-12-15T20:11:10.311Z,-3.20
2022-12-15T20:13:39.330Z,-3.20
2022-12-15T20:16:06.783Z,-3.20
2022-12-15T20:18:36.150Z,-3.10
2022-12-15T20:21:05.397Z,-3.00
2022-12-15T20:23:49.150Z,-3.10
2022-12-15T20:26:17.000Z,-3.10
2022-12-15T20:28:45.196Z,-3.10
2022-12-15T20:31:17.701Z,-3.10
2022-12-15T20:33:45.857Z,-3.20
2022-12-15T20:36:17.054Z,-3.10
2022-12-15T20:38:44.899Z,-3.20
2022-12-15T20:41:31.677Z,-3.30
2022-12-15T20:43:59.002Z,-3.40
2022-12-15T20:46:32.991Z,-3.40
2022-12-15T20:49:00.306Z,-3.50
2022-12-15T20:51:30.738Z,-3.40
2022-12-15T20:54:00.263Z,-3.40
2022-12-15T20:56:28.890Z,-3.40
2022-12-15T20:59:03.729Z,-3.30
2022-12-15T21:01:36.575Z,-3.10
2022-12-15T21:04:42.315Z,-3.20
2022-12-15T21:07:13.077Z,-3.20
2022-12-15T21:09:43.081Z,-3.20
2022-12-15T21:12:27.453Z,-3.20
2022-12-15T21:14:55.300Z,-3.30
2022-12-15T21:17:29.499Z,-3.30
2022-12-15T21:19:56.339Z,-3.30
2022-12-15T21:22:41.434Z,-3.20
2022-12-15T21:25:27.596Z,-3.10
2022-12-15T21:27:55.464Z,-3.10
2022-12-15T21:30:28.588Z,-3.10
2022-12-15T21:32:55.385Z,-3.30
2022-12-15T21:35:28.599Z,-3.30
2022-12-15T21:37:58.633Z,-3.20
2022-12-15T21:40:29.301Z,-3.20
2022-12-15T21:42:59.368Z,-3.10
2022-12-15T21:45:32.119Z,-3.00
2022-12-15T21:48:17.750Z,-3.10
2022-12-15T21:50:46.887Z,-3.00
2022-12-15T21:53:17.855Z,-3.00
2022-12-15T21:55:47.223Z,-3.00
2022-12-15T21:58:24.150Z,-2.90
2022-12-15T22:00:51.925Z,-2.90
2022-12-15T22:03:18.869Z,-3.00
2022-12-15T22:05:46.857Z,-3.00
2022-12-15T22:08:24.235Z,-3.00
2022-12-15T22:10:51.899Z,-3.20
2022-12-15T22:13:22.326Z,-3.30
2022-12-15T22:15:54.681Z,-3.40
2022-12-15T22:18:22.682Z,-3.40
2022-12-15T22:20:50.507Z,-3.30
2022-12-15T22:23:18.880Z,-3.30
2022-12-15T22:25:56.596Z,-3.30
2022-12-15T22:28:29.136Z,-3.20
2022-12-15T22:30:57.525Z,-3.00
2022-12-15T22:33:26.106Z,-2.90
2022-12-15T22:35:57.532Z,-3.10
2022-12-15T22:38:25.041Z,-3.30
2022-12-15T22:40:55.596Z,-3.20
2022-12-15T22:43:34.703Z,-3.20
2022-12-15T22:46:02.159Z,-3.10
2022-12-15T22:48:34.337Z,-3.00
2022-12-15T22:51:02.557Z,-3.10
2022-12-15T22:53:36.459Z,-3.20
2022-12-15T22:56:06.921Z,-3.20
2022-12-15T22:58:42.452Z,-3.20
2022-12-15T23:01:10.035Z,-2.90
2022-12-15T23:03:37.900Z,-3.20
2022-12-15T23:06:06.913Z,-3.20
2022-12-15T23:08:34.292Z,-3.20
2022-12-15T23:11:19.778Z,-3.30
2022-12-15T23:13:46.832Z,-3.20
2022-12-15T23:16:23.775Z,-3.10
2022-12-15T23:18:56.723Z,-3.20
2022-12-15T23:24:06.743Z,-3.20
2022-12-15T23:26:33.873Z,-3.20
2022-12-15T23:29:00.916Z,-3.20
2022-12-15T23:31:28.167Z,-3.10
2022-12-15T23:33:55.635Z,-3.20
2022-12-15T23:36:22.575Z,-3.00
2022-12-15T23:38:55.570Z,-2.80
2022-12-15T23:41:23.915Z,-2.70
2022-12-15T23:43:50.618Z,-2.70
2022-12-15T23:46:18.813Z,-2.70
2022-12-15T23:48:45.769Z,-2.80
2022-12-15T23:51:18.462Z,-3.00
2022-12-15T23:53:49.061Z,-3.00
2022-12-15T23:56:22.307Z,-2.90
2022-12-15T23:58:55.141Z,-2.90
